sensor_id;sensor_type;location;lat;lon;timestamp;temperature;humidity
71942;DHT22;59997;53.300;-6.260;2022-07-29T00:01:06;10.19;99.28
71942;DHT22;59997;53.300;-6.260;2022-07-29T00:03:32;10.21;99.16
71942;DHT22;59997;53.300;-6.260;2022-07-29T00:05:58;10.29;99.06
71942;DHT22;59997;53.300;-6.260;2022-07-29T00:08:24;10.50;99.02
71942;DHT22;59997;53.300;-6.260;2022-07-29T00:10:49;10.74;98.96
71942;DHT22;59997;53.300;-6.260;2022-07-29T00:13:15;10.91;98.92
71942;DHT22;59997;53.300;-6.260;2022-07-29T00:15:42;11.05;98.95
71942;DHT22;59997;53.300;-6.260;2022-07-29T00:18:07;11.12;98.89
71942;DHT22;59997;53.300;-6.260;2022-07-29T00:20:33;11.21;98.87
71942;DHT22;59997;53.300;-6.260;2022-07-29T00:22:58;11.30;98.72
71942;DHT22;59997;53.300;-6.260;2022-07-29T00:25:25;11.32;98.65
71942;DHT22;59997;53.300;-6.260;2022-07-29T00:27:50;11.40;98.72
71942;DHT22;59997;53.300;-6.260;2022-07-29T00:30:18;11.43;98.68
71942;DHT22;59997;53.300;-6.260;2022-07-29T00:32:43;11.47;98.67
71942;DHT22;59997;53.300;-6.260;2022-07-29T00:35:09;11.50;98.60
71942;DHT22;59997;53.300;-6.260;2022-07-29T00:37:53;11.56;98.55
71942;DHT22;59997;53.300;-6.260;2022-07-29T00:40:19;11.56;98.56
71942;DHT22;59997;53.300;-6.260;2022-07-29T00:42:47;11.56;98.49
71942;DHT22;59997;53.300;-6.260;2022-07-29T00:45:14;11.56;98.51
71942;DHT22;59997;53.300;-6.260;2022-07-29T00:47:41;11.57;98.54
71942;DHT22;59997;53.300;-6.260;2022-07-29T00:50:09;11.63;98.51
71942;DHT22;59997;53.300;-6.260;2022-07-29T00:52:36;11.64;98.48
71942;DHT22;59997;53.300;-6.260;2022-07-29T00:55:05;11.70;98.45
71942;DHT22;59997;53.300;-6.260;2022-07-29T00:57:30;11.71;98.48
71942;DHT22;59997;53.300;-6.260;2022-07-29T00:59:56;11.73;98.44
71942;DHT22;59997;53.300;-6.260;2022-07-29T01:02:22;11.75;98.41
71942;DHT22;59997;53.300;-6.260;2022-07-29T01:04:48;11.78;98.36
71942;DHT22;59997;53.300;-6.260;2022-07-29T01:07:15;11.78;98.40
71942;DHT22;59997;53.300;-6.260;2022-07-29T01:09:42;11.78;98.41
71942;DHT22;59997;53.300;-6.260;2022-07-29T01:12:09;11.80;98.45
71942;DHT22;59997;53.300;-6.260;2022-07-29T01:14:36;11.81;98.42
71942;DHT22;59997;53.300;-6.260;2022-07-29T01:17:12;11.84;98.44
71942;DHT22;59997;53.300;-6.260;2022-07-29T01:28:20;11.89;98.28
71942;DHT22;59997;53.300;-6.260;2022-07-29T01:30:51;11.92;97.93
71942;DHT22;59997;53.300;-6.260;2022-07-29T01:33:20;11.95;97.93
71942;DHT22;59997;53.300;-6.260;2022-07-29T01:36:11;11.92;98.00
71942;DHT22;59997;53.300;-6.260;2022-07-29T01:38:41;11.95;98.03
71942;DHT22;59997;53.300;-6.260;2022-07-29T01:41:12;11.97;97.95
71942;DHT22;59997;53.300;-6.260;2022-07-29T01:43:46;11.97;97.81
71942;DHT22;59997;53.300;-6.260;2022-07-29T01:46:17;11.97;97.76
71942;DHT22;59997;53.300;-6.260;2022-07-29T01:48:48;11.95;97.56
71942;DHT22;59997;53.300;-6.260;2022-07-29T01:51:35;11.98;97.44
71942;DHT22;59997;53.300;-6.260;2022-07-29T01:54:18;12.02;97.50
71942;DHT22;59997;53.300;-6.260;2022-07-29T01:56:48;12.06;97.54
71942;DHT22;59997;53.300;-6.260;2022-07-29T01:59:17;12.12;97.55
71942;DHT22;59997;53.300;-6.260;2022-07-29T02:01:46;12.19;97.26
71942;DHT22;59997;53.300;-6.260;2022-07-29T02:04:12;12.22;97.26
71942;DHT22;59997;53.300;-6.260;2022-07-29T02:06:40;12.28;96.41
71942;DHT22;59997;53.300;-6.260;2022-07-29T02:09:09;12.30;96.64
71942;DHT22;59997;53.300;-6.260;2022-07-29T02:11:35;12.39;96.44
71942;DHT22;59997;53.300;-6.260;2022-07-29T02:14:03;12.44;96.33
71942;DHT22;59997;53.300;-6.260;2022-07-29T02:16:31;12.49;96.65
71942;DHT22;59997;53.300;-6.260;2022-07-29T02:19:01;12.53;96.76
71942;DHT22;59997;53.300;-6.260;2022-07-29T02:21:29;12.56;96.74
71942;DHT22;59997;53.300;-6.260;2022-07-29T02:23:57;12.57;96.83
71942;DHT22;59997;53.300;-6.260;2022-07-29T02:26:25;12.58;96.58
71942;DHT22;59997;53.300;-6.260;2022-07-29T02:28:54;12.67;96.71
71942;DHT22;59997;53.300;-6.260;2022-07-29T02:31:24;12.73;96.04
71942;DHT22;59997;53.300;-6.260;2022-07-29T02:33:52;12.78;96.32
71942;DHT22;59997;53.300;-6.260;2022-07-29T02:36:21;12.78;96.44
71942;DHT22;59997;53.300;-6.260;2022-07-29T02:38:50;12.81;96.61
71942;DHT22;59997;53.300;-6.260;2022-07-29T02:41:32;12.88;96.79
71942;DHT22;59997;53.300;-6.260;2022-07-29T02:44:06;12.91;96.75
71942;DHT22;59997;53.300;-6.260;2022-07-29T02:46:36;12.92;96.50
71942;DHT22;59997;53.300;-6.260;2022-07-29T02:49:29;12.96;95.48
71942;DHT22;59997;53.300;-6.260;2022-07-29T02:52:02;12.98;95.88
71942;DHT22;59997;53.300;-6.260;2022-07-29T02:57:04;13.03;96.03
71942;DHT22;59997;53.300;-6.260;2022-07-29T02:59:34;13.13;96.06
71942;DHT22;59997;53.300;-6.260;2022-07-29T03:02:02;13.22;96.13
71942;DHT22;59997;53.300;-6.260;2022-07-29T03:04:30;13.28;93.53
71942;DHT22;59997;53.300;-6.260;2022-07-29T03:06:58;13.39;94.18
71942;DHT22;59997;53.300;-6.260;2022-07-29T03:09:26;13.47;94.39
71942;DHT22;59997;53.300;-6.260;2022-07-29T03:11:54;13.54;94.21
71942;DHT22;59997;53.300;-6.260;2022-07-29T03:14:21;13.58;93.76
71942;DHT22;59997;53.300;-6.260;2022-07-29T03:16:49;13.62;94.59
71942;DHT22;59997;53.300;-6.260;2022-07-29T03:19:19;13.62;94.64
71942;DHT22;59997;53.300;-6.260;2022-07-29T03:21:45;13.68;94.56
71942;DHT22;59997;53.300;-6.260;2022-07-29T03:24:28;13.74;93.05
71942;DHT22;59997;53.300;-6.260;2022-07-29T03:26:55;13.81;93.52
71942;DHT22;59997;53.300;-6.260;2022-07-29T03:29:21;13.81;94.18
71942;DHT22;59997;53.300;-6.260;2022-07-29T03:31:47;13.78;94.90
71942;DHT22;59997;53.300;-6.260;2022-07-29T03:34:12;13.79;94.78
71942;DHT22;59997;53.300;-6.260;2022-07-29T03:36:38;13.83;94.62
71942;DHT22;59997;53.300;-6.260;2022-07-29T03:39:05;13.81;94.47
71942;DHT22;59997;53.300;-6.260;2022-07-29T03:41:33;13.83;94.43
71942;DHT22;59997;53.300;-6.260;2022-07-29T03:43:59;13.83;94.55
71942;DHT22;59997;53.300;-6.260;2022-07-29T03:46:28;13.82;94.42
71942;DHT22;59997;53.300;-6.260;2022-07-29T03:49:00;13.74;94.74
71942;DHT22;59997;53.300;-6.260;2022-07-29T03:51:30;13.69;95.00
71942;DHT22;59997;53.300;-6.260;2022-07-29T03:53:56;13.67;95.25
71942;DHT22;59997;53.300;-6.260;2022-07-29T03:56:23;13.64;95.32
71942;DHT22;59997;53.300;-6.260;2022-07-29T03:58:51;13.61;95.49
71942;DHT22;59997;53.300;-6.260;2022-07-29T04:01:18;13.58;95.65
71942;DHT22;59997;53.300;-6.260;2022-07-29T04:03:45;13.58;95.77
71942;DHT22;59997;53.300;-6.260;2022-07-29T04:06:12;13.54;95.84
71942;DHT22;59997;53.300;-6.260;2022-07-29T04:08:37;13.55;95.92
71942;DHT22;59997;53.300;-6.260;2022-07-29T04:11:04;13.55;96.06
71942;DHT22;59997;53.300;-6.260;2022-07-29T04:13:31;13.55;96.18
71942;DHT22;59997;53.300;-6.260;2022-07-29T04:15:57;13.53;96.30
71942;DHT22;59997;53.300;-6.260;2022-07-29T04:18:23;13.54;96.39
71942;DHT22;59997;53.300;-6.260;2022-07-29T04:20:49;13.54;96.52
71942;DHT22;59997;53.300;-6.260;2022-07-29T04:23:15;13.54;96.57
71942;DHT22;59997;53.300;-6.260;2022-07-29T04:25:41;13.57;96.70
71942;DHT22;59997;53.300;-6.260;2022-07-29T04:28:09;13.57;96.72
71942;DHT22;59997;53.300;-6.260;2022-07-29T04:30:36;13.57;96.80
71942;DHT22;59997;53.300;-6.260;2022-07-29T04:33:05;13.58;96.84
71942;DHT22;59997;53.300;-6.260;2022-07-29T04:35:35;13.61;96.89
71942;DHT22;59997;53.300;-6.260;2022-07-29T04:38:01;13.58;96.92
71942;DHT22;59997;53.300;-6.260;2022-07-29T04:40:28;13.58;97.01
71942;DHT22;59997;53.300;-6.260;2022-07-29T04:42:54;13.60;97.02
71942;DHT22;59997;53.300;-6.260;2022-07-29T04:45:20;13.61;97.05
71942;DHT22;59997;53.300;-6.260;2022-07-29T04:47:46;13.60;97.09
71942;DHT22;59997;53.300;-6.260;2022-07-29T04:50:12;13.61;97.10
71942;DHT22;59997;53.300;-6.260;2022-07-29T04:52:37;13.64;97.13
71942;DHT22;59997;53.300;-6.260;2022-07-29T04:55:04;13.69;97.16
71942;DHT22;59997;53.300;-6.260;2022-07-29T04:57:31;13.69;97.17
71942;DHT22;59997;53.300;-6.260;2022-07-29T04:59:57;13.71;97.29
71942;DHT22;59997;53.300;-6.260;2022-07-29T05:02:23;13.72;97.25
71942;DHT22;59997;53.300;-6.260;2022-07-29T05:04:49;13.74;97.17
71942;DHT22;59997;53.300;-6.260;2022-07-29T05:07:18;13.77;97.21
71942;DHT22;59997;53.300;-6.260;2022-07-29T05:09:44;13.78;97.26
71942;DHT22;59997;53.300;-6.260;2022-07-29T05:12:10;13.82;97.25
71942;DHT22;59997;53.300;-6.260;2022-07-29T05:14:37;13.85;97.29
71942;DHT22;59997;53.300;-6.260;2022-07-29T05:17:03;13.85;97.24
71942;DHT22;59997;53.300;-6.260;2022-07-29T05:19:29;13.90;97.14
71942;DHT22;59997;53.300;-6.260;2022-07-29T05:21:55;13.92;97.13
71942;DHT22;59997;53.300;-6.260;2022-07-29T05:24:21;13.95;97.17
71942;DHT22;59997;53.300;-6.260;2022-07-29T05:26:47;13.95;97.19
71942;DHT22;59997;53.300;-6.260;2022-07-29T05:29:13;13.96;97.24
71942;DHT22;59997;53.300;-6.260;2022-07-29T05:31:39;14.01;97.16
71942;DHT22;59997;53.300;-6.260;2022-07-29T05:34:05;14.10;97.01
71942;DHT22;59997;53.300;-6.260;2022-07-29T05:36:31;14.20;96.82
71942;DHT22;59997;53.300;-6.260;2022-07-29T05:38:56;14.21;96.81
71942;DHT22;59997;53.300;-6.260;2022-07-29T05:41:22;14.24;96.75
71942;DHT22;59997;53.300;-6.260;2022-07-29T05:43:48;14.31;96.83
71942;DHT22;59997;53.300;-6.260;2022-07-29T05:46:13;14.38;96.82
71942;DHT22;59997;53.300;-6.260;2022-07-29T05:48:39;14.47;96.78
71942;DHT22;59997;53.300;-6.260;2022-07-29T05:51:05;14.52;96.77
71942;DHT22;59997;53.300;-6.260;2022-07-29T05:53:32;14.57;96.73
71942;DHT22;59997;53.300;-6.260;2022-07-29T05:56:02;14.65;96.67
71942;DHT22;59997;53.300;-6.260;2022-07-29T05:58:27;14.72;96.37
71942;DHT22;59997;53.300;-6.260;2022-07-29T06:00:53;14.79;96.21
71942;DHT22;59997;53.300;-6.260;2022-07-29T06:03:19;14.89;96.00
71942;DHT22;59997;53.300;-6.260;2022-07-29T06:05:44;14.97;95.85
71942;DHT22;59997;53.300;-6.260;2022-07-29T06:08:10;15.10;95.85
71942;DHT22;59997;53.300;-6.260;2022-07-29T06:10:36;15.27;95.62
71942;DHT22;59997;53.300;-6.260;2022-07-29T06:13:02;15.40;95.24
71942;DHT22;59997;53.300;-6.260;2022-07-29T06:15:28;15.51;94.56
71942;DHT22;59997;53.300;-6.260;2022-07-29T06:17:54;15.58;94.40
71942;DHT22;59997;53.300;-6.260;2022-07-29T06:20:20;15.59;93.85
71942;DHT22;59997;53.300;-6.260;2022-07-29T06:22:47;15.59;93.39
71942;DHT22;59997;53.300;-6.260;2022-07-29T06:25:13;15.57;92.59
71942;DHT22;59997;53.300;-6.260;2022-07-29T06:27:39;15.59;91.81
71942;DHT22;59997;53.300;-6.260;2022-07-29T06:30:05;15.57;90.67
71942;DHT22;59997;53.300;-6.260;2022-07-29T06:32:50;15.52;89.45
71942;DHT22;59997;53.300;-6.260;2022-07-29T06:35:16;15.47;90.25
71942;DHT22;59997;53.300;-6.260;2022-07-29T06:37:41;15.44;90.04
71942;DHT22;59997;53.300;-6.260;2022-07-29T06:40:07;15.49;88.87
71942;DHT22;59997;53.300;-6.260;2022-07-29T06:42:52;15.51;89.04
71942;DHT22;59997;53.300;-6.260;2022-07-29T06:45:18;15.57;89.42
71942;DHT22;59997;53.300;-6.260;2022-07-29T06:47:44;15.61;89.37
71942;DHT22;59997;53.300;-6.260;2022-07-29T06:50:10;15.66;88.83
71942;DHT22;59997;53.300;-6.260;2022-07-29T06:52:38;15.70;88.84
71942;DHT22;59997;53.300;-6.260;2022-07-29T06:55:05;15.75;88.63
71942;DHT22;59997;53.300;-6.260;2022-07-29T06:57:30;15.86;89.04
71942;DHT22;59997;53.300;-6.260;2022-07-29T06:59:57;15.96;89.23
71942;DHT22;59997;53.300;-6.260;2022-07-29T07:02:23;16.06;88.87
71942;DHT22;59997;53.300;-6.260;2022-07-29T07:04:49;16.18;88.26
71942;DHT22;59997;53.300;-6.260;2022-07-29T07:07:14;16.20;86.93
71942;DHT22;59997;53.300;-6.260;2022-07-29T07:09:40;16.31;87.08
71942;DHT22;59997;53.300;-6.260;2022-07-29T07:12:06;16.40;86.35
71942;DHT22;59997;53.300;-6.260;2022-07-29T07:14:32;16.47;86.42
71942;DHT22;59997;53.300;-6.260;2022-07-29T07:16:59;16.62;85.31
71942;DHT22;59997;53.300;-6.260;2022-07-29T07:19:26;16.76;85.27
71942;DHT22;59997;53.300;-6.260;2022-07-29T07:21:53;16.83;85.09
71942;DHT22;59997;53.300;-6.260;2022-07-29T07:24:19;16.94;84.93
71942;DHT22;59997;53.300;-6.260;2022-07-29T07:26:44;17.01;84.87
71942;DHT22;59997;53.300;-6.260;2022-07-29T07:29:10;17.08;82.90
71942;DHT22;59997;53.300;-6.260;2022-07-29T07:31:37;17.18;82.23
71942;DHT22;59997;53.300;-6.260;2022-07-29T07:34:04;17.32;82.46
71942;DHT22;59997;53.300;-6.260;2022-07-29T07:36:30;17.49;81.47
71942;DHT22;59997;53.300;-6.260;2022-07-29T07:38:56;17.59;81.13
71942;DHT22;59997;53.300;-6.260;2022-07-29T07:41:22;17.67;81.53
71942;DHT22;59997;53.300;-6.260;2022-07-29T07:43:48;17.77;79.54
71942;DHT22;59997;53.300;-6.260;2022-07-29T07:46:14;17.90;78.78
71942;DHT22;59997;53.300;-6.260;2022-07-29T07:48:40;18.11;78.55
71942;DHT22;59997;53.300;-6.260;2022-07-29T07:51:06;18.26;77.58
71942;DHT22;59997;53.300;-6.260;2022-07-29T07:53:33;18.38;75.88
71942;DHT22;59997;53.300;-6.260;2022-07-29T07:56:00;18.50;76.15
71942;DHT22;59997;53.300;-6.260;2022-07-29T07:58:26;18.61;76.17
71942;DHT22;59997;53.300;-6.260;2022-07-29T08:00:52;18.80;74.03
71942;DHT22;59997;53.300;-6.260;2022-07-29T08:03:18;18.88;74.44
71942;DHT22;59997;53.300;-6.260;2022-07-29T08:05:44;18.97;73.39
71942;DHT22;59997;53.300;-6.260;2022-07-29T08:08:10;19.01;73.16
71942;DHT22;59997;53.300;-6.260;2022-07-29T08:10:36;19.11;73.10
71942;DHT22;59997;53.300;-6.260;2022-07-29T08:13:24;19.01;72.53
71942;DHT22;59997;53.300;-6.260;2022-07-29T08:15:52;19.01;74.50
71942;DHT22;59997;53.300;-6.260;2022-07-29T08:18:30;19.12;72.86
71942;DHT22;59997;53.300;-6.260;2022-07-29T08:20:56;19.27;73.55
71942;DHT22;59997;53.300;-6.260;2022-07-29T08:23:22;19.27;70.75
71942;DHT22;59997;53.300;-6.260;2022-07-29T08:25:53;19.53;71.19
71942;DHT22;59997;53.300;-6.260;2022-07-29T08:28:19;19.59;70.19
71942;DHT22;59997;53.300;-6.260;2022-07-29T08:30:44;19.71;68.98
71942;DHT22;59997;53.300;-6.260;2022-07-29T08:33:10;19.78;69.87
71942;DHT22;59997;53.300;-6.260;2022-07-29T08:35:36;20.05;71.56
71942;DHT22;59997;53.300;-6.260;2022-07-29T08:38:02;20.46;69.92
71942;DHT22;59997;53.300;-6.260;2022-07-29T08:40:29;20.82;67.46
71942;DHT22;59997;53.300;-6.260;2022-07-29T08:42:55;21.10;65.55
71942;DHT22;59997;53.300;-6.260;2022-07-29T08:45:23;21.39;64.36
71942;DHT22;59997;53.300;-6.260;2022-07-29T08:47:49;21.33;61.77
71942;DHT22;59997;53.300;-6.260;2022-07-29T08:50:15;21.72;62.63
71942;DHT22;59997;53.300;-6.260;2022-07-29T08:52:41;22.44;61.52
71942;DHT22;59997;53.300;-6.260;2022-07-29T08:55:09;24.23;57.74
71942;DHT22;59997;53.300;-6.260;2022-07-29T08:57:35;24.44;54.85
71942;DHT22;59997;53.300;-6.260;2022-07-29T09:00:04;24.24;57.23
71942;DHT22;59997;53.300;-6.260;2022-07-29T09:02:35;23.86;54.70
71942;DHT22;59997;53.300;-6.260;2022-07-29T09:05:04;23.66;56.80
71942;DHT22;59997;53.300;-6.260;2022-07-29T09:07:30;23.82;58.04
71942;DHT22;59997;53.300;-6.260;2022-07-29T09:09:56;24.25;55.41
71942;DHT22;59997;53.300;-6.260;2022-07-29T09:12:22;25.13;50.14
71942;DHT22;59997;53.300;-6.260;2022-07-29T09:14:50;25.69;52.87
71942;DHT22;59997;53.300;-6.260;2022-07-29T09:17:15;25.61;50.16
71942;DHT22;59997;53.300;-6.260;2022-07-29T09:19:43;25.24;52.33
71942;DHT22;59997;53.300;-6.260;2022-07-29T09:22:09;24.80;50.54
71942;DHT22;59997;53.300;-6.260;2022-07-29T09:24:46;24.75;52.28
71942;DHT22;59997;53.300;-6.260;2022-07-29T09:27:23;25.58;51.96
71942;DHT22;59997;53.300;-6.260;2022-07-29T09:32:26;25.90;49.78
71942;DHT22;59997;53.300;-6.260;2022-07-29T09:35:31;25.45;50.76
71942;DHT22;59997;53.300;-6.260;2022-07-29T09:37:57;25.03;52.24
71942;DHT22;59997;53.300;-6.260;2022-07-29T09:40:26;25.04;53.50
71942;DHT22;59997;53.300;-6.260;2022-07-29T09:42:54;25.46;49.70
71942;DHT22;59997;53.300;-6.260;2022-07-29T09:45:44;23.90;51.74
71942;DHT22;59997;53.300;-6.260;2022-07-29T09:48:19;23.21;56.03
71942;DHT22;59997;53.300;-6.260;2022-07-29T09:50:45;22.96;55.27
71942;DHT22;59997;53.300;-6.260;2022-07-29T09:53:36;22.76;56.93
71942;DHT22;59997;53.300;-6.260;2022-07-29T09:56:04;22.48;57.44
71942;DHT22;59997;53.300;-6.260;2022-07-29T09:58:31;21.99;57.02
71942;DHT22;59997;53.300;-6.260;2022-07-29T10:01:02;21.86;59.04
71942;DHT22;59997;53.300;-6.260;2022-07-29T10:03:29;22.06;57.90
71942;DHT22;59997;53.300;-6.260;2022-07-29T10:06:08;22.18;59.37
71942;DHT22;59997;53.300;-6.260;2022-07-29T10:08:34;22.23;59.36
71942;DHT22;59997;53.300;-6.260;2022-07-29T10:11:15;22.26;59.47
71942;DHT22;59997;53.300;-6.260;2022-07-29T10:13:46;22.23;61.33
71942;DHT22;59997;53.300;-6.260;2022-07-29T10:16:12;22.24;59.49
71942;DHT22;59997;53.300;-6.260;2022-07-29T10:18:40;22.24;60.14
71942;DHT22;59997;53.300;-6.260;2022-07-29T10:21:07;22.17;60.94
71942;DHT22;59997;53.300;-6.260;2022-07-29T10:23:34;22.12;60.92
71942;DHT22;59997;53.300;-6.260;2022-07-29T10:26:03;22.23;59.00
71942;DHT22;59997;53.300;-6.260;2022-07-29T10:28:32;22.41;60.70
71942;DHT22;59997;53.300;-6.260;2022-07-29T10:31:04;22.47;60.87
71942;DHT22;59997;53.300;-6.260;2022-07-29T10:34:01;22.61;59.25
71942;DHT22;59997;53.300;-6.260;2022-07-29T10:37:07;22.51;61.47
71942;DHT22;59997;53.300;-6.260;2022-07-29T10:40:00;22.48;60.08
71942;DHT22;59997;53.300;-6.260;2022-07-29T10:42:50;22.61;61.18
71942;DHT22;59997;53.300;-6.260;2022-07-29T10:45:18;22.72;60.13
71942;DHT22;59997;53.300;-6.260;2022-07-29T10:47:44;22.81;58.88
71942;DHT22;59997;53.300;-6.260;2022-07-29T10:50:11;22.98;59.96
71942;DHT22;59997;53.300;-6.260;2022-07-29T10:52:54;22.91;59.51
71942;DHT22;59997;53.300;-6.260;2022-07-29T10:55:33;23.23;58.02
71942;DHT22;59997;53.300;-6.260;2022-07-29T10:58:21;24.34;56.27
71942;DHT22;59997;53.300;-6.260;2022-07-29T11:00:49;24.23;57.37
71942;DHT22;59997;53.300;-6.260;2022-07-29T11:03:47;23.86;58.17
71942;DHT22;59997;53.300;-6.260;2022-07-29T11:06:13;23.43;58.45
71942;DHT22;59997;53.300;-6.260;2022-07-29T11:08:41;23.10;60.23
71942;DHT22;59997;53.300;-6.260;2022-07-29T11:13:52;23.00;61.55
71942;DHT22;59997;53.300;-6.260;2022-07-29T11:16:20;22.88;60.57
71942;DHT22;59997;53.300;-6.260;2022-07-29T11:19:18;22.68;62.27
71942;DHT22;59997;53.300;-6.260;2022-07-29T11:21:45;22.59;61.08
71942;DHT22;59997;53.300;-6.260;2022-07-29T11:24:19;22.34;60.36
71942;DHT22;59997;53.300;-6.260;2022-07-29T11:27:17;22.47;61.16
71942;DHT22;59997;53.300;-6.260;2022-07-29T11:29:58;22.61;61.98
71942;DHT22;59997;53.300;-6.260;2022-07-29T11:32:49;22.65;61.27
71942;DHT22;59997;53.300;-6.260;2022-07-29T11:35:23;22.73;60.10
71942;DHT22;59997;53.300;-6.260;2022-07-29T11:41:21;23.28;60.48
71942;DHT22;59997;53.300;-6.260;2022-07-29T11:43:55;23.87;56.58
71942;DHT22;59997;53.300;-6.260;2022-07-29T11:46:49;24.38;54.42
71942;DHT22;59997;53.300;-6.260;2022-07-29T11:49:22;23.75;56.59
71942;DHT22;59997;53.300;-6.260;2022-07-29T11:51:56;23.30;59.11
71942;DHT22;59997;53.300;-6.260;2022-07-29T11:54:36;22.69;61.30
71942;DHT22;59997;53.300;-6.260;2022-07-29T11:57:06;22.07;61.65
71942;DHT22;59997;53.300;-6.260;2022-07-29T11:59:39;21.79;63.21
71942;DHT22;59997;53.300;-6.260;2022-07-29T12:02:07;21.58;63.74
71942;DHT22;59997;53.300;-6.260;2022-07-29T12:04:33;21.54;64.85
71942;DHT22;59997;53.300;-6.260;2022-07-29T12:07:00;21.46;66.18
71942;DHT22;59997;53.300;-6.260;2022-07-29T12:09:26;21.31;65.90
71942;DHT22;59997;53.300;-6.260;2022-07-29T12:11:58;21.12;65.03
71942;DHT22;59997;53.300;-6.260;2022-07-29T12:14:32;21.03;65.64
71942;DHT22;59997;53.300;-6.260;2022-07-29T12:16:59;20.96;66.56
71942;DHT22;59997;53.300;-6.260;2022-07-29T12:19:27;20.92;66.87
71942;DHT22;59997;53.300;-6.260;2022-07-29T12:21:55;20.96;67.29
71942;DHT22;59997;53.300;-6.260;2022-07-29T12:24:21;21.10;66.79
71942;DHT22;59997;53.300;-6.260;2022-07-29T12:26:52;21.37;65.05
71942;DHT22;59997;53.300;-6.260;2022-07-29T12:29:20;21.83;63.31
71942;DHT22;59997;53.300;-6.260;2022-07-29T12:31:51;22.39;61.70
71942;DHT22;59997;53.300;-6.260;2022-07-29T12:34:23;23.17;59.07
71942;DHT22;59997;53.300;-6.260;2022-07-29T12:36:49;24.32;58.80
71942;DHT22;59997;53.300;-6.260;2022-07-29T12:39:16;24.45;53.96
71942;DHT22;59997;53.300;-6.260;2022-07-29T12:41:44;24.32;54.58
71942;DHT22;59997;53.300;-6.260;2022-07-29T12:44:10;24.49;53.38
71942;DHT22;59997;53.300;-6.260;2022-07-29T12:46:36;24.42;54.65
71942;DHT22;59997;53.300;-6.260;2022-07-29T12:49:03;24.17;53.87
71942;DHT22;59997;53.300;-6.260;2022-07-29T12:51:40;23.59;53.46
71942;DHT22;59997;53.300;-6.260;2022-07-29T12:54:10;23.37;56.44
71942;DHT22;59997;53.300;-6.260;2022-07-29T12:56:37;23.31;56.26
71942;DHT22;59997;53.300;-6.260;2022-07-29T12:59:19;23.17;55.09
71942;DHT22;59997;53.300;-6.260;2022-07-29T13:01:49;22.95;57.46
71942;DHT22;59997;53.300;-6.260;2022-07-29T13:04:29;22.99;58.40
71942;DHT22;59997;53.300;-6.260;2022-07-29T13:07:04;22.96;55.27
71942;DHT22;59997;53.300;-6.260;2022-07-29T13:09:42;22.86;57.00
71942;DHT22;59997;53.300;-6.260;2022-07-29T13:12:12;22.55;57.26
71942;DHT22;59997;53.300;-6.260;2022-07-29T13:14:44;22.76;57.91
71942;DHT22;59997;53.300;-6.260;2022-07-29T13:19:46;22.73;57.52
71942;DHT22;59997;53.300;-6.260;2022-07-29T13:22:14;23.04;57.70
71942;DHT22;59997;53.300;-6.260;2022-07-29T13:24:47;23.28;56.95
71942;DHT22;59997;53.300;-6.260;2022-07-29T13:27:18;23.71;56.52
71942;DHT22;59997;53.300;-6.260;2022-07-29T13:29:45;23.96;54.59
71942;DHT22;59997;53.300;-6.260;2022-07-29T13:32:12;23.99;54.23
71942;DHT22;59997;53.300;-6.260;2022-07-29T13:34:37;24.18;54.21
71942;DHT22;59997;53.300;-6.260;2022-07-29T13:37:03;24.24;53.59
71942;DHT22;59997;53.300;-6.260;2022-07-29T13:39:29;24.31;53.97
71942;DHT22;59997;53.300;-6.260;2022-07-29T13:41:55;24.30;54.71
71942;DHT22;59997;53.300;-6.260;2022-07-29T13:44:22;24.31;54.47
71942;DHT22;59997;53.300;-6.260;2022-07-29T13:46:47;24.06;53.19
71942;DHT22;59997;53.300;-6.260;2022-07-29T13:49:13;24.04;53.75
71942;DHT22;59997;53.300;-6.260;2022-07-29T13:51:38;24.45;54.77
71942;DHT22;59997;53.300;-6.260;2022-07-29T13:54:05;24.80;52.12
71942;DHT22;59997;53.300;-6.260;2022-07-29T13:56:30;24.94;52.32
71942;DHT22;59997;53.300;-6.260;2022-07-29T13:58:56;24.99;52.92
71942;DHT22;59997;53.300;-6.260;2022-07-29T14:01:23;24.68;53.38
71942;DHT22;59997;53.300;-6.260;2022-07-29T14:03:49;24.32;54.12
71942;DHT22;59997;53.300;-6.260;2022-07-29T14:06:15;23.99;55.34
71942;DHT22;59997;53.300;-6.260;2022-07-29T14:08:41;23.82;55.07
71942;DHT22;59997;53.300;-6.260;2022-07-29T14:11:06;23.73;56.50
71942;DHT22;59997;53.300;-6.260;2022-07-29T14:13:32;23.59;56.40
71942;DHT22;59997;53.300;-6.260;2022-07-29T14:15:58;23.38;57.19
71942;DHT22;59997;53.300;-6.260;2022-07-29T14:18:24;23.36;56.93
71942;DHT22;59997;53.300;-6.260;2022-07-29T14:20:50;23.31;58.88
71942;DHT22;59997;53.300;-6.260;2022-07-29T14:23:17;23.43;57.67
71942;DHT22;59997;53.300;-6.260;2022-07-29T14:25:43;23.37;56.91
71942;DHT22;59997;53.300;-6.260;2022-07-29T14:28:09;23.51;57.43
71942;DHT22;59997;53.300;-6.260;2022-07-29T14:30:35;23.57;56.98
71942;DHT22;59997;53.300;-6.260;2022-07-29T14:33:00;23.62;56.31
71942;DHT22;59997;53.300;-6.260;2022-07-29T14:35:27;23.63;56.57
71942;DHT22;59997;53.300;-6.260;2022-07-29T14:37:54;23.69;56.26
71942;DHT22;59997;53.300;-6.260;2022-07-29T14:40:19;23.72;57.35
71942;DHT22;59997;53.300;-6.260;2022-07-29T14:42:46;23.90;56.31
71942;DHT22;59997;53.300;-6.260;2022-07-29T14:45:12;23.86;55.82
71942;DHT22;59997;53.300;-6.260;2022-07-29T14:47:38;24.02;56.29
71942;DHT22;59997;53.300;-6.260;2022-07-29T14:50:05;24.39;54.73
71942;DHT22;59997;53.300;-6.260;2022-07-29T14:52:31;24.64;55.03
71942;DHT22;59997;53.300;-6.260;2022-07-29T14:54:58;24.55;54.53
71942;DHT22;59997;53.300;-6.260;2022-07-29T14:57:23;24.73;54.39
71942;DHT22;59997;53.300;-6.260;2022-07-29T14:59:49;24.86;54.62
71942;DHT22;59997;53.300;-6.260;2022-07-29T15:02:15;24.64;54.63
71942;DHT22;59997;53.300;-6.260;2022-07-29T15:04:41;24.25;56.63
71942;DHT22;59997;53.300;-6.260;2022-07-29T15:07:07;24.04;56.79
71942;DHT22;59997;53.300;-6.260;2022-07-29T15:09:34;23.72;56.46
71942;DHT22;59997;53.300;-6.260;2022-07-29T15:12:00;23.69;57.52
71942;DHT22;59997;53.300;-6.260;2022-07-29T15:14:27;23.65;56.53
71942;DHT22;59997;53.300;-6.260;2022-07-29T15:16:53;23.59;56.55
71942;DHT22;59997;53.300;-6.260;2022-07-29T15:19:19;23.23;56.80
71942;DHT22;59997;53.300;-6.260;2022-07-29T15:21:46;23.40;57.57
71942;DHT22;59997;53.300;-6.260;2022-07-29T15:24:11;23.61;57.44
71942;DHT22;59997;53.300;-6.260;2022-07-29T15:26:37;23.87;55.48
71942;DHT22;59997;53.300;-6.260;2022-07-29T15:29:03;23.97;56.05
71942;DHT22;59997;53.300;-6.260;2022-07-29T15:31:29;24.04;55.57
71942;DHT22;59997;53.300;-6.260;2022-07-29T15:33:55;23.99;55.31
71942;DHT22;59997;53.300;-6.260;2022-07-29T15:36:21;23.86;56.21
71942;DHT22;59997;53.300;-6.260;2022-07-29T15:38:47;24.10;55.45
71942;DHT22;59997;53.300;-6.260;2022-07-29T15:41:16;24.10;56.03
71942;DHT22;59997;53.300;-6.260;2022-07-29T15:43:43;24.09;55.00
71942;DHT22;59997;53.300;-6.260;2022-07-29T15:46:15;23.82;54.76
71942;DHT22;59997;53.300;-6.260;2022-07-29T15:48:59;23.30;55.54